Language: 


Des rapports , des résumés tant et plus, au choix de chacun....


Données Historiques de Météogheer
Journalier Rapport pour Février 14, 2018 Unitée:  Les deux    Impériale   Métrique
Suivant Jour »
Journalier Hebdomadaire Mensuel Annuel Sur mesure
  Max: Min: Moyenne:
Température: 44.1 °F /  6.7 °C 33.3 °F /  0.7 °C 38.1 °F /  3.4 °C
Point de rosée: 37.4 °F /  3.0 °C 28.4 °F /  -2.0 °C 33.4 °F /  0.8 °C
Humidité: 95% 69% 82%
Vent: 25.5mph /  41.0km/h - 7.9mph /  12.7km/h
Rafales: 26.2mph /  42.2km/h - -
Vent- - South
Pression: 29.9 in /  1011.1 hPa 29.7 in /  1007.0 hPa -
Pluie: 0.08 in /  2.0 mm    
Historical Graphs
 
 
Données tabulaires pour Février 14, 2018
Heure Température Point de rosée Pression Vent Vent Rafales Humidité Pluie Taux (Horaire) Conditions
00:02 34.5 °F /  1.4 °C 28.4 °F /  -2.0 °C 29.7in /  1007.0hPa Calm   8.7mph /  14.0km/h 78% 0in /  0.0mm
00:07 34.5 °F /  1.4 °C 28.4 °F /  -2.0 °C 29.7in /  1007.0hPa ESE 4.9mph /  7.9km/h 8.1mph /  13.0km/h 78% 0in /  0.0mm
00:12 34.5 °F /  1.4 °C 28.4 °F /  -2.0 °C 29.7in /  1007.0hPa Calm   7.6mph /  12.2km/h 78% 0in /  0.0mm
00:17 34.5 °F /  1.4 °C 28.4 °F /  -2.0 °C 29.7in /  1007.0hPa Calm   6.5mph /  10.5km/h 78% 0in /  0.0mm
00:22 34.5 °F /  1.4 °C 28.4 °F /  -2.0 °C 29.7in /  1007.0hPa SE 5.6mph /  9.0km/h 6.9mph /  11.1km/h 78% 0in /  0.0mm
00:27 34.3 °F /  1.3 °C 28.4 °F /  -2.0 °C 29.7in /  1007.0hPa SSE 3.8mph /  6.1km/h 6.9mph /  11.1km/h 78% 0in /  0.0mm
00:32 34.5 °F /  1.4 °C 28.4 °F /  -2.0 °C 29.7in /  1007.0hPa SSE 0.9mph /  1.4km/h 8.5mph /  13.7km/h 77% 0in /  0.0mm
00:37 34.3 °F /  1.3 °C 28.4 °F /  -2.0 °C 29.7in /  1007.0hPa South 0.9mph /  1.4km/h 8.5mph /  13.7km/h 78% 0in /  0.0mm
00:42 34.3 °F /  1.3 °C 28.4 °F /  -2.0 °C 29.7in /  1007.0hPa SSE 3.1mph /  5.0km/h 7.2mph /  11.6km/h 77% 0in /  0.0mm
00:47 34.3 °F /  1.3 °C 28.4 °F /  -2.0 °C 29.7in /  1007.0hPa SSE 4mph /  6.4km/h 5.6mph /  9.0km/h 77% 0in /  0.0mm
00:52 34.2 °F /  1.2 °C 28.4 °F /  -2.0 °C 29.7in /  1007.0hPa SSE 6mph /  9.7km/h 6.3mph /  10.1km/h 77% 0in /  0.0mm
00:57 34.2 °F /  1.2 °C 28.4 °F /  -2.0 °C 29.7in /  1007.0hPa SSE 2mph /  3.2km/h 6.3mph /  10.1km/h 77% 0in /  0.0mm
01:02 34.2 °F /  1.2 °C 28.4 °F /  -2.0 °C 29.7in /  1007.0hPa South 6.3mph /  10.1km/h 7.8mph /  12.6km/h 77% 0in /  0.0mm
01:07 34.2 °F /  1.2 °C 28.4 °F /  -2.0 °C 29.7in /  1007.0hPa ESE 6.3mph /  10.1km/h 7.8mph /  12.6km/h 77% 0in /  0.0mm
01:12 34.2 °F /  1.2 °C 28.4 °F /  -2.0 °C 29.7in /  1007.0hPa South 6.3mph /  10.1km/h 10.1mph /  16.3km/h 77% 0in /  0.0mm
01:18 34.2 °F /  1.2 °C 28.4 °F /  -2.0 °C 29.8in /  1008.0hPa SSE 5.6mph /  9.0km/h 10.1mph /  16.3km/h 77% 0in /  0.0mm
01:23 34.3 °F /  1.3 °C 28.4 °F /  -2.0 °C 29.8in /  1008.0hPa Calm   12.3mph /  19.8km/h 77% 0in /  0.0mm
01:28 34.2 °F /  1.2 °C 28.4 °F /  -2.0 °C 29.8in /  1008.0hPa SSE 7.2mph /  11.6km/h 12.3mph /  19.8km/h 77% 0in /  0.0mm
01:33 34.2 °F /  1.2 °C 28.4 °F /  -2.0 °C 29.8in /  1008.0hPa SSE 6.5mph /  10.5km/h 10.7mph /  17.2km/h 77% 0in /  0.0mm
01:38 34.2 °F /  1.2 °C 28.4 °F /  -2.0 °C 29.8in /  1008.0hPa SSE 3.4mph /  5.5km/h 10.7mph /  17.2km/h 77% 0in /  0.0mm
01:43 34 °F /  1.1 °C 28.4 °F /  -2.0 °C 29.8in /  1008.0hPa SSE 6mph /  9.7km/h 10.1mph /  16.3km/h 77% 0in /  0.0mm
01:48 34 °F /  1.1 °C 28.4 °F /  -2.0 °C 29.7in /  1007.0hPa SSE 5.4mph /  8.7km/h 8.7mph /  14.0km/h 78% 0in /  0.0mm
01:53 34 °F /  1.1 °C 28.4 °F /  -2.0 °C 29.7in /  1007.0hPa SSE 6.5mph /  10.5km/h 10.1mph /  16.3km/h 78% 0in /  0.0mm
01:58 34 °F /  1.1 °C 28.4 °F /  -2.0 °C 29.7in /  1007.0hPa South 5.4mph /  8.7km/h 11mph /  17.7km/h 78% 0in /  0.0mm
02:03 34 °F /  1.1 °C 28.4 °F /  -2.0 °C 29.8in /  1008.0hPa Calm   11mph /  17.7km/h 78% 0in /  0.0mm
02:08 33.8 °F /  1.0 °C 28.4 °F /  -2.0 °C 29.8in /  1008.0hPa South 5.4mph /  8.7km/h 8.1mph /  13.0km/h 79% 0in /  0.0mm
02:13 33.8 °F /  1.0 °C 28.4 °F /  -2.0 °C 29.8in /  1008.0hPa SE 2mph /  3.2km/h 8.1mph /  13.0km/h 79% 0in /  0.0mm
02:18 33.8 °F /  1.0 °C 28.4 °F /  -2.0 °C 29.8in /  1008.0hPa Calm   9.6mph /  15.4km/h 79% 0in /  0.0mm
02:23 33.8 °F /  1.0 °C 28.4 °F /  -2.0 °C 29.8in /  1008.0hPa Calm   9.6mph /  15.4km/h 80% 0in /  0.0mm
02:28 33.8 °F /  1.0 °C 28.4 °F /  -2.0 °C 29.8in /  1009.0hPa Calm   10.3mph /  16.6km/h 80% 0in /  0.0mm
02:34 33.8 °F /  1.0 °C 28.4 °F /  -2.0 °C 29.8in /  1009.0hPa South 5.4mph /  8.7km/h 10.3mph /  16.6km/h 81% 0in /  0.0mm
02:39 33.8 °F /  1.0 °C 30.2 °F /  -1.0 °C 29.8in /  1009.0hPa South 5.8mph /  9.3km/h 8.7mph /  14.0km/h 82% 0in /  0.0mm
02:44 33.8 °F /  1.0 °C 30.2 °F /  -1.0 °C 29.8in /  1009.0hPa Calm   8.7mph /  14.0km/h 82% 0in /  0.0mm
02:49 33.8 °F /  1.0 °C 30.2 °F /  -1.0 °C 29.8in /  1009.0hPa South 4.7mph /  7.6km/h 7.8mph /  12.6km/h 82% 0in /  0.0mm
02:54 33.6 °F /  0.9 °C 30.2 °F /  -1.0 °C 29.8in /  1009.0hPa Calm   8.1mph /  13.0km/h 83% 0in /  0.0mm
02:59 33.6 °F /  0.9 °C 30.2 °F /  -1.0 °C 29.8in /  1009.0hPa SSE 9.6mph /  15.4km/h 9.6mph /  15.4km/h 83% 0in /  0.0mm
03:04 33.6 °F /  0.9 °C 30.2 °F /  -1.0 °C 29.8in /  1009.0hPa South 5.8mph /  9.3km/h 9.6mph /  15.4km/h 84% 0in /  0.0mm
03:09 33.4 °F /  0.8 °C 30.2 °F /  -1.0 °C 29.8in /  1009.0hPa Calm   6.3mph /  10.1km/h 84% 0in /  0.0mm
03:14 33.4 °F /  0.8 °C 30.2 °F /  -1.0 °C 29.8in /  1009.0hPa South 0.9mph /  1.4km/h 7.4mph /  11.9km/h 84% 0in /  0.0mm
03:19 33.4 °F /  0.8 °C 30.2 °F /  -1.0 °C 29.8in /  1009.0hPa SSE 5.4mph /  8.7km/h 7.8mph /  12.6km/h 85% 0in /  0.0mm
03:24 33.6 °F /  0.9 °C 30.2 °F /  -1.0 °C 29.8in /  1009.0hPa SSE 7.6mph /  12.2km/h 8.7mph /  14.0km/h 86% 0in /  0.0mm
03:29 33.6 °F /  0.9 °C 30.2 °F /  -1.0 °C 29.8in /  1009.0hPa SE 3.1mph /  5.0km/h 9.8mph /  15.8km/h 86% 0in /  0.0mm
03:34 33.6 °F /  0.9 °C 30.2 °F /  -1.0 °C 29.8in /  1009.0hPa SSE 4.7mph /  7.6km/h 9.8mph /  15.8km/h 87% 0in /  0.0mm
03:39 33.6 °F /  0.9 °C 30.2 °F /  -1.0 °C 29.8in /  1009.0hPa SSE 6.3mph /  10.1km/h 9.6mph /  15.4km/h 87% 0in /  0.0mm
03:44 33.6 °F /  0.9 °C 30.2 °F /  -1.0 °C 29.8in /  1009.0hPa SSE 5.6mph /  9.0km/h 10.3mph /  16.6km/h 87% 0in /  0.0mm
03:49 33.6 °F /  0.9 °C 30.2 °F /  -1.0 °C 29.8in /  1009.0hPa SE 6.5mph /  10.5km/h 10.3mph /  16.6km/h 87% 0in /  0.0mm
03:54 33.6 °F /  0.9 °C 30.2 °F /  -1.0 °C 29.8in /  1009.0hPa SSE 2.5mph /  4.0km/h 9.6mph /  15.4km/h 87% 0in /  0.0mm
03:59 33.6 °F /  0.9 °C 30.2 °F /  -1.0 °C 29.8in /  1009.0hPa Calm   8.1mph /  13.0km/h 87% 0in /  0.0mm
04:04 33.6 °F /  0.9 °C 30.2 °F /  -1.0 °C 29.8in /  1009.0hPa South 3.8mph /  6.1km/h 7.6mph /  12.2km/h 86% 0in /  0.0mm
04:09 33.6 °F /  0.9 °C 30.2 °F /  -1.0 °C 29.8in /  1009.0hPa SSE 6.5mph /  10.5km/h 8.5mph /  13.7km/h 86% 0in /  0.0mm
04:14 33.6 °F /  0.9 °C 30.2 °F /  -1.0 °C 29.8in /  1010.0hPa South 6.3mph /  10.1km/h 8.5mph /  13.7km/h 86% 0in /  0.0mm
04:19 33.8 °F /  1.0 °C 30.2 °F /  -1.0 °C 29.8in /  1010.0hPa SSE 2mph /  3.2km/h 8.5mph /  13.7km/h 86% 0in /  0.0mm
04:24 33.8 °F /  1.0 °C 30.2 °F /  -1.0 °C 29.8in /  1010.0hPa South 6.3mph /  10.1km/h 8.5mph /  13.7km/h 86% 0in /  0.0mm
04:29 33.8 °F /  1.0 °C 30.2 °F /  -1.0 °C 29.8in /  1009.0hPa South 3.4mph /  5.5km/h 7.8mph /  12.6km/h 86% 0in /  0.0mm
04:34 33.8 °F /  1.0 °C 30.2 °F /  -1.0 °C 29.8in /  1009.0hPa South 4.9mph /  7.9km/h 8.5mph /  13.7km/h 85% 0in /  0.0mm
04:39 33.6 °F /  0.9 °C 30.2 °F /  -1.0 °C 29.8in /  1009.0hPa SSE 6.9mph /  11.1km/h 8.5mph /  13.7km/h 86% 0in /  0.0mm
04:44 33.6 °F /  0.9 °C 30.2 °F /  -1.0 °C 29.8in /  1009.0hPa SSE 5.8mph /  9.3km/h 8.7mph /  14.0km/h 86% 0in /  0.0mm
04:49 33.6 °F /  0.9 °C 30.2 °F /  -1.0 °C 29.8in /  1010.0hPa Calm   8.7mph /  14.0km/h 86% 0in /  0.0mm
04:54 33.6 °F /  0.9 °C 30.2 °F /  -1.0 °C 29.8in /  1010.0hPa South 4.3mph /  6.9km/h 8.5mph /  13.7km/h 87% 0in /  0.0mm
04:59 33.6 °F /  0.9 °C 30.2 °F /  -1.0 °C 29.8in /  1009.0hPa South 5.4mph /  8.7km/h 7.2mph /  11.6km/h 87% 0in /  0.0mm
05:04 33.8 °F /  1.0 °C 30.2 °F /  -1.0 °C 29.8in /  1009.0hPa South 6mph /  9.7km/h 7.4mph /  11.9km/h 87% 0in /  0.0mm
05:09 33.8 °F /  1.0 °C 30.2 °F /  -1.0 °C 29.8in /  1009.0hPa Calm   9.6mph /  15.4km/h 87% 0in /  0.0mm
05:15 33.8 °F /  1.0 °C 30.2 °F /  -1.0 °C 29.8in /  1009.0hPa South 2.5mph /  4.0km/h 9.6mph /  15.4km/h 87% 0in /  0.0mm
05:20 33.8 °F /  1.0 °C 30.2 °F /  -1.0 °C 29.8in /  1009.0hPa Calm   7.8mph /  12.6km/h 87% 0in /  0.0mm
05:25 33.6 °F /  0.9 °C 30.2 °F /  -1.0 °C 29.8in /  1009.0hPa Calm   7.4mph /  11.9km/h 87% 0in /  0.0mm
05:27 33.6 °F /  0.9 °C 30.2 °F /  -1.0 °C 29.8in /  1009.0hPa SSE 4mph /  6.4km/h 6.3mph /  10.1km/h 87% 0in /  0.0mm
05:32 33.4 °F /  0.8 °C 30.2 °F /  -1.0 °C 29.8in /  1009.0hPa Calm   10.7mph /  17.2km/h 87% 0in /  0.0mm
05:37 33.4 °F /  0.8 °C 30.2 °F /  -1.0 °C 29.8in /  1009.0hPa South 3.1mph /  5.0km/h 10.7mph /  17.2km/h 87% 0in /  0.0mm
05:42 33.3 °F /  0.7 °C 30.2 °F /  -1.0 °C 29.8in /  1009.0hPa Calm   8.5mph /  13.7km/h 87% 0in /  0.0mm
05:47 33.3 °F /  0.7 °C 30.2 °F /  -1.0 °C 29.8in /  1009.0hPa SE 5.4mph /  8.7km/h 6.5mph /  10.5km/h 88% 0in /  0.0mm
05:52 33.3 °F /  0.7 °C 30.2 °F /  -1.0 °C 29.8in /  1009.0hPa SSE 3.6mph /  5.8km/h 7.6mph /  12.2km/h 88% 0in /  0.0mm
05:57 33.3 °F /  0.7 °C 30.2 °F /  -1.0 °C 29.8in /  1009.0hPa Calm   8.5mph /  13.7km/h 89% 0in /  0.0mm
06:02 33.3 °F /  0.7 °C 30.2 °F /  -1.0 °C 29.8in /  1009.0hPa SSE 5.8mph /  9.3km/h 8.7mph /  14.0km/h 89% 0in /  0.0mm
06:07 33.4 °F /  0.8 °C 32 °F /  0.0 °C 29.8in /  1009.0hPa SSE 3.4mph /  5.5km/h 8.7mph /  14.0km/h 89% 0in /  0.0mm
06:12 33.4 °F /  0.8 °C 32 °F /  0.0 °C 29.8in /  1009.0hPa SSE 5.6mph /  9.0km/h 8.7mph /  14.0km/h 89% 0in /  0.0mm
06:17 33.3 °F /  0.7 °C 30.2 °F /  -1.0 °C 29.8in /  1008.0hPa South 5.4mph /  8.7km/h 8.1mph /  13.0km/h 89% 0in /  0.0mm
06:22 33.4 °F /  0.8 °C 30.2 °F /  -1.0 °C 29.8in /  1008.0hPa SE 6.5mph /  10.5km/h 12.3mph /  19.8km/h 88% 0in /  0.0mm
06:27 33.4 °F /  0.8 °C 30.2 °F /  -1.0 °C 29.8in /  1008.0hPa SSE 6.5mph /  10.5km/h 12.3mph /  19.8km/h 88% 0in /  0.0mm
06:33 33.3 °F /  0.7 °C 30.2 °F /  -1.0 °C 29.8in /  1009.0hPa SE 6.3mph /  10.1km/h 11mph /  17.7km/h 88% 0in /  0.0mm
06:38 33.3 °F /  0.7 °C 30.2 °F /  -1.0 °C 29.8in /  1009.0hPa SSE 7.4mph /  11.9km/h 11.9mph /  19.1km/h 88% 0in /  0.0mm
06:43 33.3 °F /  0.7 °C 30.2 °F /  -1.0 °C 29.8in /  1009.0hPa South 2.2mph /  3.5km/h 11.9mph /  19.1km/h 88% 0in /  0.0mm
06:48 33.3 °F /  0.7 °C 30.2 °F /  -1.0 °C 29.8in /  1008.0hPa South 5.4mph /  8.7km/h 7.2mph /  11.6km/h 88% 0in /  0.0mm
06:53 33.3 °F /  0.7 °C 30.2 °F /  -1.0 °C 29.8in /  1008.0hPa South 4.3mph /  6.9km/h 7.2mph /  11.6km/h 89% 0in /  0.0mm
06:58 33.3 °F /  0.7 °C 30.2 °F /  -1.0 °C 29.8in /  1008.0hPa SE 4.3mph /  6.9km/h 5.6mph /  9.0km/h 88% 0in /  0.0mm
07:03 33.3 °F /  0.7 °C 30.2 °F /  -1.0 °C 29.8in /  1009.0hPa SSE 6.5mph /  10.5km/h 6.5mph /  10.5km/h 89% 0in /  0.0mm
07:08 33.3 °F /  0.7 °C 30.2 °F /  -1.0 °C 29.8in /  1009.0hPa SSE 2mph /  3.2km/h 6.9mph /  11.1km/h 89% 0in /  0.0mm
07:13 33.4 °F /  0.8 °C 32 °F /  0.0 °C 29.8in /  1009.0hPa Calm   8.5mph /  13.7km/h 89% 0in /  0.0mm
07:18 33.6 °F /  0.9 °C 32 °F /  0.0 °C 29.8in /  1009.0hPa SSE 3.4mph /  5.5km/h 8.5mph /  13.7km/h 90% 0in /  0.0mm
07:23 33.6 °F /  0.9 °C 32 °F /  0.0 °C 29.8in /  1009.0hPa SSE 5.8mph /  9.3km/h 9.6mph /  15.4km/h 90% 0in /  0.0mm
07:28 33.8 °F /  1.0 °C 32 °F /  0.0 °C 29.8in /  1009.0hPa SSE 6mph /  9.7km/h 9.6mph /  15.4km/h 90% 0in /  0.0mm
07:33 34 °F /  1.1 °C 32 °F /  0.0 °C 29.8in /  1009.0hPa Calm   8.5mph /  13.7km/h 90% 0in /  0.0mm
07:38 34.3 °F /  1.3 °C 32 °F /  0.0 °C 29.8in /  1009.0hPa SSE 7.4mph /  11.9km/h 8.5mph /  13.7km/h 91% 0in /  0.0mm
07:43 34.3 °F /  1.3 °C 32 °F /  0.0 °C 29.8in /  1009.0hPa SSE 3.6mph /  5.8km/h 7.8mph /  12.6km/h 91% 0in /  0.0mm
07:48 34.5 °F /  1.4 °C 32 °F /  0.0 °C 29.8in /  1010.0hPa SSE 2.9mph /  4.7km/h 14.8mph /  23.8km/h 91% 0in /  0.0mm
07:53 34.5 °F /  1.4 °C 32 °F /  0.0 °C 29.8in /  1010.0hPa SSE 11.2mph /  18.0km/h 14.8mph /  23.8km/h 91% 0in /  0.0mm
07:58 34.5 °F /  1.4 °C 32 °F /  0.0 °C 29.8in /  1010.0hPa SSE 0.9mph /  1.4km/h 11.2mph /  18.0km/h 90% 0in /  0.0mm
08:03 34.7 °F /  1.5 °C 32 °F /  0.0 °C 29.8in /  1010.0hPa South 7.4mph /  11.9km/h 8.7mph /  14.0km/h 90% 0in /  0.0mm
08:08 34.7 °F /  1.5 °C 32 °F /  0.0 °C 29.8in /  1010.0hPa Calm   10.7mph /  17.2km/h 90% 0in /  0.0mm
08:13 34.9 °F /  1.6 °C 32 °F /  0.0 °C 29.8in /  1010.0hPa South 3.4mph /  5.5km/h 10.7mph /  17.2km/h 90% 0in /  0.0mm
08:18 34.9 °F /  1.6 °C 32 °F /  0.0 °C 29.8in /  1010.0hPa South 5.8mph /  9.3km/h 12.3mph /  19.8km/h 90% 0in /  0.0mm
08:24 35.1 °F /  1.7 °C 33.8 °F /  1.0 °C 29.8in /  1010.0hPa South 10.1mph /  16.3km/h 12.3mph /  19.8km/h 91% 0in /  0.0mm
08:29 35.1 °F /  1.7 °C 33.8 °F /  1.0 °C 29.8in /  1010.0hPa SSE 7.8mph /  12.6km/h 12.3mph /  19.8km/h 91% 0in /  0.0mm
08:34 35.1 °F /  1.7 °C 33.8 °F /  1.0 °C 29.8in /  1010.0hPa South 6.5mph /  10.5km/h 12.5mph /  20.1km/h 91% 0in /  0.0mm
08:39 35.1 °F /  1.7 °C 33.8 °F /  1.0 °C 29.8in /  1010.0hPa South 5.4mph /  8.7km/h 12.5mph /  20.1km/h 91% 0in /  0.0mm
08:44 35.1 °F /  1.7 °C 33.8 °F /  1.0 °C 29.8in /  1010.0hPa South 12.5mph /  20.1km/h 12.5mph /  20.1km/h 91% 0in /  0.0mm
08:49 35.1 °F /  1.7 °C 33.8 °F /  1.0 °C 29.8in /  1010.0hPa South 7.6mph /  12.2km/h 12.8mph /  20.6km/h 92% 0in /  0.0mm
08:54 35.2 °F /  1.8 °C 33.8 °F /  1.0 °C 29.8in /  1010.0hPa SSE 7.6mph /  12.2km/h 13mph /  20.9km/h 92% 0in /  0.0mm
08:59 35.2 °F /  1.8 °C 33.8 °F /  1.0 °C 29.8in /  1010.0hPa South 6.5mph /  10.5km/h 15.4mph /  24.8km/h 92% 0in /  0.0mm
09:04 35.2 °F /  1.8 °C 33.8 °F /  1.0 °C 29.8in /  1010.0hPa South 4.3mph /  6.9km/h 15.4mph /  24.8km/h 92% 0in /  0.0mm
09:09 35.2 °F /  1.8 °C 33.8 °F /  1.0 °C 29.8in /  1010.0hPa SSE 1.6mph /  2.6km/h 13.2mph /  21.2km/h 92% 0in /  0.0mm
09:14 35.2 °F /  1.8 °C 33.8 °F /  1.0 °C 29.8in /  1010.0hPa South 6.3mph /  10.1km/h 13.2mph /  21.2km/h 92% 0in /  0.0mm
09:19 35.4 °F /  1.9 °C 33.8 °F /  1.0 °C 29.8in /  1010.0hPa SSE 5.6mph /  9.0km/h 13mph /  20.9km/h 92% 0in /  0.0mm
09:24 35.6 °F /  2.0 °C 33.8 °F /  1.0 °C 29.8in /  1010.0hPa South 9.6mph /  15.4km/h 13.6mph /  21.9km/h 91% 0in /  0.0mm
09:29 35.6 °F /  2.0 °C 33.8 °F /  1.0 °C 29.9in /  1011.1hPa South 11.9mph /  19.1km/h 14.5mph /  23.3km/h 91% 0in /  0.0mm
09:34 35.6 °F /  2.0 °C 33.8 °F /  1.0 °C 29.9in /  1011.1hPa South 6.5mph /  10.5km/h 14.5mph /  23.3km/h 90% 0in /  0.0mm
09:40 35.6 °F /  2.0 °C 33.8 °F /  1.0 °C 29.9in /  1011.1hPa SSW 7.8mph /  12.6km/h 14.3mph /  23.0km/h 90% 0in /  0.0mm
09:45 35.6 °F /  2.0 °C 33.8 °F /  1.0 °C 29.9in /  1011.1hPa SSW 12.1mph /  19.5km/h 14.3mph /  23.0km/h 90% 0in /  0.0mm
09:50 35.6 °F /  2.0 °C 33.8 °F /  1.0 °C 29.9in /  1011.1hPa SSE 7.6mph /  12.2km/h 12.5mph /  20.1km/h 91% 0in /  0.0mm
09:55 35.6 °F /  2.0 °C 33.8 °F /  1.0 °C 29.9in /  1011.1hPa SSW 8.7mph /  14.0km/h 12.5mph /  20.1km/h 91% 0in /  0.0mm
10:00 35.8 °F /  2.1 °C 33.8 °F /  1.0 °C 29.9in /  1011.1hPa South 10.7mph /  17.2km/h 13.4mph /  21.6km/h 91% 0in /  0.0mm
10:05 35.8 °F /  2.1 °C 33.8 °F /  1.0 °C 29.9in /  1011.1hPa SSE 6.5mph /  10.5km/h 13.4mph /  21.6km/h 91% 0in /  0.0mm
10:11 36 °F /  2.2 °C 33.8 °F /  1.0 °C 29.9in /  1011.1hPa SSW 7.2mph /  11.6km/h 12.3mph /  19.8km/h 91% 0in /  0.0mm
10:16 36.1 °F /  2.3 °C 33.8 °F /  1.0 °C 29.9in /  1011.1hPa SSW 8.1mph /  13.0km/h 12.3mph /  19.8km/h 91% 0in /  0.0mm
10:21 36.3 °F /  2.4 °C 33.8 °F /  1.0 °C 29.9in /  1011.1hPa South 6mph /  9.7km/h 12.8mph /  20.6km/h 91% 0in /  0.0mm
10:26 36.3 °F /  2.4 °C 33.8 °F /  1.0 °C 29.9in /  1011.1hPa SSW 8.5mph /  13.7km/h 13.6mph /  21.9km/h 91% 0in /  0.0mm
10:31 36.3 °F /  2.4 °C 33.8 °F /  1.0 °C 29.9in /  1011.1hPa SSE 9.8mph /  15.8km/h 14.5mph /  23.3km/h 91% 0in /  0.0mm
10:36 36.5 °F /  2.5 °C 35.6 °F /  2.0 °C 29.9in /  1011.1hPa South 12.1mph /  19.5km/h 14.5mph /  23.3km/h 91% 0in /  0.0mm
10:41 36.7 °F /  2.6 °C 35.6 °F /  2.0 °C 29.9in /  1011.1hPa SSW 7.4mph /  11.9km/h 14.5mph /  23.3km/h 91% 0in /  0.0mm
10:46 36.7 °F /  2.6 °C 35.6 °F /  2.0 °C 29.8in /  1010.0hPa South 8.7mph /  14.0km/h 14.5mph /  23.3km/h 91% 0in /  0.0mm
10:51 36.9 °F /  2.7 °C 35.6 °F /  2.0 °C 29.8in /  1010.0hPa South 8.7mph /  14.0km/h 13.6mph /  21.9km/h 91% 0in /  0.0mm
10:56 37.2 °F /  2.9 °C 35.6 °F /  2.0 °C 29.8in /  1010.0hPa SSE 8.7mph /  14.0km/h 14.3mph /  23.0km/h 90% 0in /  0.0mm
11:01 37.4 °F /  3.0 °C 35.6 °F /  2.0 °C 29.9in /  1011.1hPa SSE 8.1mph /  13.0km/h 17.7mph /  28.5km/h 89% 0in /  0.0mm
11:06 37.8 °F /  3.2 °C 35.6 °F /  2.0 °C 29.9in /  1011.1hPa SSE 7.6mph /  12.2km/h 17.7mph /  28.5km/h 88% 0in /  0.0mm
11:11 38.5 °F /  3.6 °C 35.6 °F /  2.0 °C 29.9in /  1011.1hPa SSW 10.1mph /  16.3km/h 16.6mph /  26.7km/h 88% 0in /  0.0mm
11:16 38.5 °F /  3.6 °C 35.6 °F /  2.0 °C 29.9in /  1011.1hPa SSW 6.9mph /  11.1km/h 12.3mph /  19.8km/h 87% 0in /  0.0mm
11:21 38.7 °F /  3.7 °C 35.6 °F /  2.0 °C 29.9in /  1011.1hPa South 10.1mph /  16.3km/h 12.3mph /  19.8km/h 87% 0in /  0.0mm
11:26 38.8 °F /  3.8 °C 35.6 °F /  2.0 °C 29.9in /  1011.1hPa South 6.3mph /  10.1km/h 14.5mph /  23.3km/h 86% 0in /  0.0mm
11:31 38.8 °F /  3.8 °C 35.6 °F /  2.0 °C 29.8in /  1010.0hPa South 6mph /  9.7km/h 14.5mph /  23.3km/h 85% 0in /  0.0mm
11:36 39.4 °F /  4.1 °C 35.6 °F /  2.0 °C 29.8in /  1010.0hPa SW 12.1mph /  19.5km/h 13mph /  20.9km/h 86% 0in /  0.0mm
11:41 39.6 °F /  4.2 °C 35.6 °F /  2.0 °C 29.8in /  1010.0hPa SSW 10.5mph /  16.9km/h 13mph /  20.9km/h 84% 0in /  0.0mm
11:46 39.9 °F /  4.4 °C 35.6 °F /  2.0 °C 29.9in /  1011.1hPa South 13mph /  20.9km/h 13mph /  20.9km/h 83% 0in /  0.0mm
11:51 40.3 °F /  4.6 °C 35.6 °F /  2.0 °C 29.9in /  1011.1hPa South 8.9mph /  14.3km/h 13mph /  20.9km/h 83% 0in /  0.0mm
11:56 40.6 °F /  4.8 °C 35.6 °F /  2.0 °C 29.9in /  1011.1hPa South 13.2mph /  21.2km/h 13.2mph /  21.2km/h 81% 0in /  0.0mm
12:02 41.2 °F /  5.1 °C 35.6 °F /  2.0 °C 29.9in /  1011.1hPa SSW 7.4mph /  11.9km/h 13.2mph /  21.2km/h 80% 0in /  0.0mm
12:06 41.4 °F /  5.2 °C 35.6 °F /  2.0 °C 29.9in /  1011.1hPa South 4.9mph /  7.9km/h 12.3mph /  19.8km/h 79% 0in /  0.0mm
12:12 41.9 °F /  5.5 °C 37.4 °F /  3.0 °C 29.9in /  1011.1hPa South 10.3mph /  16.6km/h 12.3mph /  19.8km/h 80% 0in /  0.0mm
12:17 42.1 °F /  5.6 °C 35.6 °F /  2.0 °C 29.8in /  1010.0hPa South 7.8mph /  12.6km/h 11.4mph /  18.3km/h 78% 0in /  0.0mm
12:22 42.4 °F /  5.8 °C 37.4 °F /  3.0 °C 29.8in /  1010.0hPa South 8.7mph /  14.0km/h 11.4mph /  18.3km/h 78% 0in /  0.0mm
12:27 42.8 °F /  6.0 °C 37.4 °F /  3.0 °C 29.8in /  1010.0hPa SSW 8.7mph /  14.0km/h 11.2mph /  18.0km/h 77% 0in /  0.0mm
12:32 42.8 °F /  6.0 °C 35.6 °F /  2.0 °C 29.8in /  1010.0hPa SSE 7.8mph /  12.6km/h 12.8mph /  20.6km/h 76% 0in /  0.0mm
12:37 43 °F /  6.1 °C 35.6 °F /  2.0 °C 29.8in /  1010.0hPa South 10.1mph /  16.3km/h 12.8mph /  20.6km/h 75% 0in /  0.0mm
12:42 43.3 °F /  6.3 °C 37.4 °F /  3.0 °C 29.8in /  1010.0hPa South 8.7mph /  14.0km/h 12.8mph /  20.6km/h 75% 0in /  0.0mm
12:47 43.2 °F /  6.2 °C 35.6 °F /  2.0 °C 29.9in /  1011.1hPa South 7.4mph /  11.9km/h 12.8mph /  20.6km/h 74% 0in /  0.0mm
12:52 43 °F /  6.1 °C 35.6 °F /  2.0 °C 29.9in /  1011.1hPa SSW 13.4mph /  21.6km/h 13.4mph /  21.6km/h 74% 0in /  0.0mm
12:57 43.3 °F /  6.3 °C 35.6 °F /  2.0 °C 29.9in /  1011.1hPa SSW 15.4mph /  24.8km/h 16.3mph /  26.2km/h 74% 0in /  0.0mm
13:02 43.3 °F /  6.3 °C 35.6 °F /  2.0 °C 29.9in /  1011.1hPa South 7.4mph /  11.9km/h 16.3mph /  26.2km/h 74% 0in /  0.0mm
13:07 43.7 °F /  6.5 °C 37.4 °F /  3.0 °C 29.9in /  1011.1hPa SSW 10.5mph /  16.9km/h 15.4mph /  24.8km/h 74% 0in /  0.0mm
13:12 43.3 °F /  6.3 °C 35.6 °F /  2.0 °C 29.9in /  1011.1hPa South 8.7mph /  14.0km/h 15.2mph /  24.5km/h 72% 0in /  0.0mm
13:17 43.2 °F /  6.2 °C 35.6 °F /  2.0 °C 29.9in /  1011.1hPa South 8.5mph /  13.7km/h 15.2mph /  24.5km/h 73% 0in /  0.0mm
13:22 43 °F /  6.1 °C 35.6 °F /  2.0 °C 29.9in /  1011.1hPa South 10.3mph /  16.6km/h 17.2mph /  27.7km/h 74% 0in /  0.0mm
13:27 42.8 °F /  6.0 °C 35.6 °F /  2.0 °C 29.9in /  1011.1hPa South 11.9mph /  19.1km/h 17.2mph /  27.7km/h 73% 0in /  0.0mm
13:32 43 °F /  6.1 °C 35.6 °F /  2.0 °C 29.9in /  1011.1hPa South 11mph /  17.7km/h 16.6mph /  26.7km/h 74% 0in /  0.0mm
13:37 42.8 °F /  6.0 °C 35.6 °F /  2.0 °C 29.9in /  1011.1hPa SSW 7.6mph /  12.2km/h 16.6mph /  26.7km/h 74% 0in /  0.0mm
13:42 42.8 °F /  6.0 °C 35.6 °F /  2.0 °C 29.9in /  1011.1hPa SSW 12.8mph /  20.6km/h 15.2mph /  24.5km/h 74% 0in /  0.0mm
13:47 43.2 °F /  6.2 °C 37.4 °F /  3.0 °C 29.9in /  1011.1hPa SSW 8.1mph /  13.0km/h 12.8mph /  20.6km/h 75% 0in /  0.0mm
13:52 43.3 °F /  6.3 °C 37.4 °F /  3.0 °C 29.9in /  1011.1hPa South 7.8mph /  12.6km/h 15.9mph /  25.6km/h 75% 0in /  0.0mm
13:57 43.2 °F /  6.2 °C 35.6 °F /  2.0 °C 29.9in /  1011.1hPa South 7.8mph /  12.6km/h 15.9mph /  25.6km/h 74% 0in /  0.0mm
14:02 43.3 °F /  6.3 °C 37.4 °F /  3.0 °C 29.9in /  1011.1hPa SSW 10.3mph /  16.6km/h 13.9mph /  22.4km/h 75% 0in /  0.0mm
14:07 43.5 °F /  6.4 °C 35.6 °F /  2.0 °C 29.9in /  1011.1hPa South 10.3mph /  16.6km/h 15.4mph /  24.8km/h 74% 0in /  0.0mm
14:12 43.7 °F /  6.5 °C 37.4 °F /  3.0 °C 29.9in /  1011.1hPa South 11mph /  17.7km/h 15.4mph /  24.8km/h 74% 0in /  0.0mm
14:17 44.1 °F /  6.7 °C 37.4 °F /  3.0 °C 29.8in /  1010.0hPa SSE 5.8mph /  9.3km/h 15.2mph /  24.5km/h 74% 0in /  0.0mm
14:22 43.5 °F /  6.4 °C 35.6 °F /  2.0 °C 29.8in /  1010.0hPa SSW 8.5mph /  13.7km/h 15.2mph /  24.5km/h 73% 0in /  0.0mm
14:27 43.5 °F /  6.4 °C 35.6 °F /  2.0 °C 29.8in /  1010.0hPa SSW 7.6mph /  12.2km/h 14.1mph /  22.7km/h 73% 0in /  0.0mm
14:32 43.5 °F /  6.4 °C 35.6 °F /  2.0 °C 29.8in /  1010.0hPa SSE 10.1mph /  16.3km/h 14.3mph /  23.0km/h 73% 0in /  0.0mm
14:37 43.3 °F /  6.3 °C 35.6 °F /  2.0 °C 29.8in /  1010.0hPa SSE 8.1mph /  13.0km/h 15.2mph /  24.5km/h 73% 0in /  0.0mm
14:42 43.3 °F /  6.3 °C 35.6 °F /  2.0 °C 29.8in /  1010.0hPa SSE 7.2mph /  11.6km/h 15.2mph /  24.5km/h 73% 0in /  0.0mm
14:47 43.3 °F /  6.3 °C 35.6 °F /  2.0 °C 29.8in /  1010.0hPa SSW 6mph /  9.7km/h 13.2mph /  21.2km/h 74% 0in /  0.0mm
14:52 43.3 °F /  6.3 °C 35.6 °F /  2.0 °C 29.8in /  1010.0hPa SSW 9.4mph /  15.1km/h 14.3mph /  23.0km/h 73% 0in /  0.0mm
14:57 43.3 °F /  6.3 °C 35.6 °F /  2.0 °C 29.8in /  1010.0hPa SSE 13mph /  20.9km/h 15.4mph /  24.8km/h 74% 0in /  0.0mm
15:02 43.3 °F /  6.3 °C 35.6 °F /  2.0 °C 29.8in /  1010.0hPa South 9.6mph /  15.4km/h 15.4mph /  24.8km/h 73% 0in /  0.0mm
15:07 43.3 °F /  6.3 °C 35.6 °F /  2.0 °C 29.8in /  1010.0hPa South 10.3mph /  16.6km/h 15.2mph /  24.5km/h 74% 0in /  0.0mm
15:12 43.2 °F /  6.2 °C 35.6 °F /  2.0 °C 29.8in /  1010.0hPa South 11mph /  17.7km/h 19mph /  30.6km/h 74% 0in /  0.0mm
15:17 43.2 °F /  6.2 °C 35.6 °F /  2.0 °C 29.8in /  1010.0hPa SSE 8.9mph /  14.3km/h 19mph /  30.6km/h 74% 0in /  0.0mm
15:22 43 °F /  6.1 °C 35.6 °F /  2.0 °C 29.8in /  1010.0hPa South 10.5mph /  16.9km/h 15.4mph /  24.8km/h 74% 0in /  0.0mm
15:27 43.2 °F /  6.2 °C 35.6 °F /  2.0 °C 29.8in /  1010.0hPa South 6.3mph /  10.1km/h 15.4mph /  24.8km/h 74% 0in /  0.0mm
15:32 43.2 °F /  6.2 °C 35.6 °F /  2.0 °C 29.8in /  1010.0hPa South 12.1mph /  19.5km/h 14.8mph /  23.8km/h 74% 0in /  0.0mm
15:37 43.2 °F /  6.2 °C 35.6 °F /  2.0 °C 29.8in /  1010.0hPa South 9.8mph /  15.8km/h 14.8mph /  23.8km/h 74% 0in /  0.0mm
15:42 43.3 °F /  6.3 °C 35.6 °F /  2.0 °C 29.8in /  1010.0hPa SSE 6.3mph /  10.1km/h 15.4mph /  24.8km/h 74% 0in /  0.0mm
15:47 43.3 °F /  6.3 °C 35.6 °F /  2.0 °C 29.8in /  1010.0hPa SSE 6.5mph /  10.5km/h 15.4mph /  24.8km/h 74% 0in /  0.0mm
15:52 43.3 °F /  6.3 °C 35.6 °F /  2.0 °C 29.8in /  1010.0hPa South 7.8mph /  12.6km/h 15.4mph /  24.8km/h 74% 0in /  0.0mm
15:57 43.3 °F /  6.3 °C 35.6 °F /  2.0 °C 29.8in /  1010.0hPa South 5.4mph /  8.7km/h 17.2mph /  27.7km/h 73% 0in /  0.0mm
16:02 43.2 °F /  6.2 °C 35.6 °F /  2.0 °C 29.8in /  1010.0hPa SSW 8.5mph /  13.7km/h 17.2mph /  27.7km/h 73% 0in /  0.0mm
16:07 43.3 °F /  6.3 °C 35.6 °F /  2.0 °C 29.8in /  1010.0hPa South 7.4mph /  11.9km/h 15.4mph /  24.8km/h 72% 0in /  0.0mm
16:12 43.3 °F /  6.3 °C 35.6 °F /  2.0 °C 29.8in /  1010.0hPa SSE 8.7mph /  14.0km/h 15.4mph /  24.8km/h 73% 0in /  0.0mm
16:17 43.3 °F /  6.3 °C 35.6 °F /  2.0 °C 29.8in /  1010.0hPa South 9.8mph /  15.8km/h 14.5mph /  23.3km/h 73% 0in /  0.0mm
16:22 43.3 °F /  6.3 °C 35.6 °F /  2.0 °C 29.8in /  1010.0hPa SSW 6mph /  9.7km/h 13.9mph /  22.4km/h 73% 0in /  0.0mm
16:27 43.2 °F /  6.2 °C 35.6 °F /  2.0 °C 29.8in /  1010.0hPa SSW 5.4mph /  8.7km/h 10.5mph /  16.9km/h 73% 0in /  0.0mm
16:32 43.2 °F /  6.2 °C 33.8 °F /  1.0 °C 29.8in /  1010.0hPa South 15.4mph /  24.8km/h 15.4mph /  24.8km/h 70% 0in /  0.0mm
16:37 43.2 °F /  6.2 °C 33.8 °F /  1.0 °C 29.8in /  1010.0hPa SSE 8.7mph /  14.0km/h 15.9mph /  25.6km/h 69% 0in /  0.0mm
16:42 43 °F /  6.1 °C 33.8 °F /  1.0 °C 29.8in /  1010.0hPa South 10.5mph /  16.9km/h 15.9mph /  25.6km/h 69% 0in /  0.0mm
16:47 43 °F /  6.1 °C 33.8 °F /  1.0 °C 29.8in /  1010.0hPa South 6mph /  9.7km/h 15.4mph /  24.8km/h 70% 0in /  0.0mm
16:53 42.8 °F /  6.0 °C 33.8 °F /  1.0 °C 29.8in /  1010.0hPa South 8.7mph /  14.0km/h 14.5mph /  23.3km/h 70% 0in /  0.0mm
16:58 42.8 °F /  6.0 °C 33.8 °F /  1.0 °C 29.8in /  1010.0hPa South 6.5mph /  10.5km/h 16.6mph /  26.7km/h 71% 0in /  0.0mm
17:03 42.6 °F /  5.9 °C 33.8 °F /  1.0 °C 29.8in /  1010.0hPa South 14.8mph /  23.8km/h 17.4mph /  28.0km/h 70% 0in /  0.0mm
17:08 42.6 °F /  5.9 °C 33.8 °F /  1.0 °C 29.8in /  1010.0hPa South 13.4mph /  21.6km/h 17.4mph /  28.0km/h 70% 0in /  0.0mm
17:13 42.4 °F /  5.8 °C 33.8 °F /  1.0 °C 29.8in /  1010.0hPa South 13.2mph /  21.2km/h 23.5mph /  37.8km/h 71% 0in /  0.0mm
17:18 42.4 °F /  5.8 °C 35.6 °F /  2.0 °C 29.8in /  1010.0hPa SSE 17mph /  27.4km/h 23.5mph /  37.8km/h 72% 0in /  0.0mm
17:23 42.3 °F /  5.7 °C 33.8 °F /  1.0 °C 29.8in /  1010.0hPa SSE 11.9mph /  19.1km/h 18.8mph /  30.2km/h 72% 0in /  0.0mm
17:28 42.3 °F /  5.7 °C 33.8 °F /  1.0 °C 29.8in /  1010.0hPa South 5.4mph /  8.7km/h 16.1mph /  25.9km/h 72% 0in /  0.0mm
17:33 42.1 °F /  5.6 °C 33.8 °F /  1.0 °C 29.8in /  1010.0hPa South 8.1mph /  13.0km/h 14.8mph /  23.8km/h 73% 0in /  0.0mm
17:38 42.1 °F /  5.6 °C 33.8 °F /  1.0 °C 29.8in /  1010.0hPa SSW 10.7mph /  17.2km/h 15.2mph /  24.5km/h 73% 0in /  0.0mm
17:43 41.9 °F /  5.5 °C 33.8 °F /  1.0 °C 29.8in /  1010.0hPa SSE 7.4mph /  11.9km/h 15.2mph /  24.5km/h 73% 0in /  0.0mm
17:48 42.1 °F /  5.6 °C 33.8 °F /  1.0 °C 29.8in /  1010.0hPa SSE 7.8mph /  12.6km/h 17.7mph /  28.5km/h 73% 0in /  0.0mm
17:53 41.9 °F /  5.5 °C 35.6 °F /  2.0 °C 29.8in /  1010.0hPa SSE 8.7mph /  14.0km/h 17.7mph /  28.5km/h 74% 0in /  0.0mm
17:58 41.9 °F /  5.5 °C 33.8 °F /  1.0 °C 29.8in /  1010.0hPa SSE 12.8mph /  20.6km/h 15.4mph /  24.8km/h 73% 0in /  0.0mm
18:03 41.7 °F /  5.4 °C 33.8 °F /  1.0 °C 29.8in /  1009.0hPa South 12.8mph /  20.6km/h 15.4mph /  24.8km/h 73% 0in /  0.0mm
18:08 41.7 °F /  5.4 °C 33.8 °F /  1.0 °C 29.8in /  1009.0hPa South 5.8mph /  9.3km/h 18.1mph /  29.1km/h 73% 0in /  0.0mm
18:13 41.7 °F /  5.4 °C 33.8 °F /  1.0 °C 29.8in /  1009.0hPa South 8.5mph /  13.7km/h 21mph /  33.8km/h 72% 0in /  0.0mm
18:18 41.7 °F /  5.4 °C 33.8 °F /  1.0 °C 29.8in /  1009.0hPa SSE 9.6mph /  15.4km/h 21mph /  33.8km/h 73% 0in /  0.0mm
18:23 41.7 °F /  5.4 °C 33.8 °F /  1.0 °C 29.8in /  1009.0hPa SSE 10.5mph /  16.9km/h 17mph /  27.4km/h 73% 0in /  0.0mm
18:28 41.5 °F /  5.3 °C 33.8 °F /  1.0 °C 29.8in /  1009.0hPa South 10.1mph /  16.3km/h 17mph /  27.4km/h 74% 0in /  0.0mm
18:33 41.5 °F /  5.3 °C 33.8 °F /  1.0 °C 29.8in /  1009.0hPa South 6mph /  9.7km/h 17mph /  27.4km/h 74% 0in /  0.0mm
18:38 41.5 °F /  5.3 °C 33.8 °F /  1.0 °C 29.8in /  1009.0hPa SE 11.2mph /  18.0km/h 17mph /  27.4km/h 74% 0in /  0.0mm
18:43 41.4 °F /  5.2 °C 33.8 °F /  1.0 °C 29.8in /  1009.0hPa SSW 10.1mph /  16.3km/h 16.8mph /  27.0km/h 75% 0in /  0.0mm
18:48 41.2 °F /  5.1 °C 33.8 °F /  1.0 °C 29.8in /  1009.0hPa South 10.5mph /  16.9km/h 16.8mph /  27.0km/h 75% 0in /  0.0mm
18:54 41.2 °F /  5.1 °C 33.8 °F /  1.0 °C 29.8in /  1009.0hPa SSW 5.8mph /  9.3km/h 14.1mph /  22.7km/h 75% 0in /  0.0mm
18:59 41.2 °F /  5.1 °C 33.8 °F /  1.0 °C 29.8in /  1009.0hPa South 12.1mph /  19.5km/h 16.3mph /  26.2km/h 75% 0in /  0.0mm
19:04 41.2 °F /  5.1 °C 33.8 °F /  1.0 °C 29.8in /  1009.0hPa South 8.7mph /  14.0km/h 16.8mph /  27.0km/h 75% 0in /  0.0mm
19:09 41.2 °F /  5.1 °C 33.8 °F /  1.0 °C 29.8in /  1009.0hPa SSE 8.1mph /  13.0km/h 16.8mph /  27.0km/h 76% 0in /  0.0mm
19:14 41 °F /  5.0 °C 33.8 °F /  1.0 °C 29.8in /  1008.0hPa SSW 6.3mph /  10.1km/h 16.8mph /  27.0km/h 76% 0in /  0.0mm
19:19 41 °F /  5.0 °C 33.8 °F /  1.0 °C 29.8in /  1008.0hPa South 18.6mph /  29.9km/h 18.6mph /  29.9km/h 76% 0in /  0.0mm
19:24 41 °F /  5.0 °C 33.8 °F /  1.0 °C 29.8in /  1008.0hPa SSE 12.8mph /  20.6km/h 18.6mph /  29.9km/h 76% 0in /  0.0mm
19:29 41 °F /  5.0 °C 33.8 °F /  1.0 °C 29.8in /  1008.0hPa South 8.7mph /  14.0km/h 19.9mph /  32.0km/h 76% 0in /  0.0mm
19:34 41 °F /  5.0 °C 33.8 °F /  1.0 °C 29.8in /  1008.0hPa SSW 17.2mph /  27.7km/h 19.9mph /  32.0km/h 76% 0in /  0.0mm
19:39 41 °F /  5.0 °C 35.6 °F /  2.0 °C 29.8in /  1008.0hPa South 12.3mph /  19.8km/h 17.2mph /  27.7km/h 77% 0in /  0.0mm
19:44 41 °F /  5.0 °C 35.6 °F /  2.0 °C 29.8in /  1009.0hPa South 19mph /  30.6km/h 19mph /  30.6km/h 77% 0in /  0.0mm
19:49 41 °F /  5.0 °C 35.6 °F /  2.0 °C 29.8in /  1009.0hPa SSW 12.3mph /  19.8km/h 19mph /  30.6km/h 78% 0in /  0.0mm
19:54 40.8 °F /  4.9 °C 35.6 °F /  2.0 °C 29.8in /  1009.0hPa South 13.4mph /  21.6km/h 13.9mph /  22.4km/h 79% 0in /  0.0mm
19:59 40.6 °F /  4.8 °C 35.6 °F /  2.0 °C 29.8in /  1008.0hPa South 10.7mph /  17.2km/h 13.4mph /  21.6km/h 80% 0in /  0.0mm
20:04 40.6 °F /  4.8 °C 35.6 °F /  2.0 °C 29.8in /  1008.0hPa SSW 6.5mph /  10.5km/h 15.2mph /  24.5km/h 81% 0in /  0.0mm
20:09 40.5 °F /  4.7 °C 35.6 °F /  2.0 °C 29.8in /  1008.0hPa South 7.8mph /  12.6km/h 20.8mph /  33.5km/h 82% 0in /  0.0mm
20:14 40.5 °F /  4.7 °C 35.6 °F /  2.0 °C 29.8in /  1009.0hPa South 9.2mph /  14.8km/h 20.8mph /  33.5km/h 83% 0in /  0.0mm
20:19 40.3 °F /  4.6 °C 35.6 °F /  2.0 °C 29.8in /  1009.0hPa SSE 16.1mph /  25.9km/h 17mph /  27.4km/h 84% 0in /  0.0mm
20:24 40.3 °F /  4.6 °C 35.6 °F /  2.0 °C 29.8in /  1009.0hPa SSW 9.8mph /  15.8km/h 23mph /  37.0km/h 84% 0in /  0.0mm
20:29 40.3 °F /  4.6 °C 35.6 °F /  2.0 °C 29.8in /  1009.0hPa South 10.5mph /  16.9km/h 23mph /  37.0km/h 83% 0in /  0.0mm
20:34 40.5 °F /  4.7 °C 35.6 °F /  2.0 °C 29.8in /  1009.0hPa SSW 7.2mph /  11.6km/h 16.3mph /  26.2km/h 83% 0in /  0.0mm
20:39 40.3 °F /  4.6 °C 35.6 °F /  2.0 °C 29.8in /  1009.0hPa South 8.7mph /  14.0km/h 16.3mph /  26.2km/h 84% 0in /  0.0mm
20:44 40.3 °F /  4.6 °C 35.6 °F /  2.0 °C 29.8in /  1009.0hPa South 9.8mph /  15.8km/h 15.4mph /  24.8km/h 84% 0in /  0.0mm
20:49 40.3 °F /  4.6 °C 35.6 °F /  2.0 °C 29.8in /  1009.0hPa SSW 15.4mph /  24.8km/h 15.4mph /  24.8km/h 84% 0in /  0.0mm
20:54 40.3 °F /  4.6 °C 35.6 °F /  2.0 °C 29.8in /  1009.0hPa South 17mph /  27.4km/h 22.6mph /  36.4km/h 84% 0in /  0.0mm
20:59 40.1 °F /  4.5 °C 37.4 °F /  3.0 °C 29.8in /  1009.0hPa SSW 10.1mph /  16.3km/h 22.6mph /  36.4km/h 85% 0.01in /  0.3mm
21:04 39.9 °F /  4.4 °C 35.6 °F /  2.0 °C 29.8in /  1009.0hPa SSE 13.2mph /  21.2km/h 17.9mph /  28.8km/h 85% 0.01in /  0.3mm
21:09 39.9 °F /  4.4 °C 35.6 °F /  2.0 °C 29.8in /  1009.0hPa SSW 9.6mph /  15.4km/h 17.9mph /  28.8km/h 86% 0.01in /  0.3mm
21:15 39.9 °F /  4.4 °C 35.6 °F /  2.0 °C 29.8in /  1009.0hPa SSW 13.4mph /  21.6km/h 15.7mph /  25.3km/h 86% 0.01in /  0.3mm
21:20 39.7 °F /  4.3 °C 35.6 °F /  2.0 °C 29.8in /  1009.0hPa South 15.2mph /  24.5km/h 17.7mph /  28.5km/h 86% 0.01in /  0.3mm
21:25 39.7 °F /  4.3 °C 37.4 °F /  3.0 °C 29.8in /  1009.0hPa SSE 13.9mph /  22.4km/h 21.9mph /  35.2km/h 87% 0.01in /  0.3mm
21:30 39.6 °F /  4.2 °C 37.4 °F /  3.0 °C 29.8in /  1008.0hPa SSW 8.5mph /  13.7km/h 21.9mph /  35.2km/h 87% 0.01in /  0.3mm
21:35 39.6 °F /  4.2 °C 37.4 °F /  3.0 °C 29.8in /  1008.0hPa South 10.1mph /  16.3km/h 23.5mph /  37.8km/h 87% 0.01in /  0.3mm
21:40 39.6 °F /  4.2 °C 37.4 °F /  3.0 °C 29.8in /  1008.0hPa SSE 17.7mph /  28.5km/h 23.5mph /  37.8km/h 88% 0.01in /  0.3mm
21:45 39.6 °F /  4.2 °C 37.4 °F /  3.0 °C 29.8in /  1008.0hPa South 8.5mph /  13.7km/h 17.7mph /  28.5km/h 88% 0.01in /  0.3mm
21:50 39.4 °F /  4.1 °C 35.6 °F /  2.0 °C 29.8in /  1008.0hPa South 8.1mph /  13.0km/h 23.7mph /  38.1km/h 88% 0.01in /  0.3mm
21:55 39.4 °F /  4.1 °C 35.6 °F /  2.0 °C 29.8in /  1008.0hPa SSW 8.7mph /  14.0km/h 23.7mph /  38.1km/h 88% 0.01in /  0.3mm
22:00 39.2 °F /  4.0 °C 37.4 °F /  3.0 °C 29.7in /  1007.0hPa SSW 14.5mph /  23.3km/h 23.7mph /  38.1km/h 89% 0in /  0.0mm
22:05 39.4 °F /  4.1 °C 37.4 °F /  3.0 °C 29.7in /  1007.0hPa South 14.5mph /  23.3km/h 23.7mph /  38.1km/h 89% 0in /  0.0mm
22:10 39.2 °F /  4.0 °C 37.4 °F /  3.0 °C 29.7in /  1007.0hPa South 13.9mph /  22.4km/h 19.7mph /  31.7km/h 89% 0in /  0.0mm
22:15 39.2 °F /  4.0 °C 37.4 °F /  3.0 °C 29.7in /  1007.0hPa South 25.5mph /  41.0km/h 25.5mph /  41.0km/h 90% 0in /  0.0mm
22:20 39.2 °F /  4.0 °C 37.4 °F /  3.0 °C 29.7in /  1007.0hPa SSW 11mph /  17.7km/h 25.5mph /  41.0km/h 90% 0.01in /  0.3mm
22:25 39.2 °F /  4.0 °C 37.4 °F /  3.0 °C 29.7in /  1007.0hPa West 17.9mph /  28.8km/h 25.5mph /  41.0km/h 90% 0.01in /  0.3mm
22:30 39.2 °F /  4.0 °C 37.4 °F /  3.0 °C 29.7in /  1007.0hPa South 12.1mph /  19.5km/h 25.5mph /  41.0km/h 90% 0.01in /  0.3mm
22:35 39.2 °F /  4.0 °C 37.4 °F /  3.0 °C 29.7in /  1007.0hPa SSE 12.3mph /  19.8km/h 22.1mph /  35.6km/h 91% 0.01in /  0.3mm
22:40 39.2 °F /  4.0 °C 37.4 °F /  3.0 °C 29.7in /  1007.0hPa SSW 13mph /  20.9km/h 26.2mph /  42.2km/h 91% 0.01in /  0.3mm
22:45 39.2 °F /  4.0 °C 37.4 °F /  3.0 °C 29.7in /  1007.0hPa South 9.2mph /  14.8km/h 26.2mph /  42.2km/h 91% 0.01in /  0.3mm
22:51 39 °F /  3.9 °C 37.4 °F /  3.0 °C 29.7in /  1007.0hPa SSE 15.4mph /  24.8km/h 19.7mph /  31.7km/h 92% 0.03in /  0.8mm
22:56 39.2 °F /  4.0 °C 37.4 °F /  3.0 °C 29.7in /  1007.0hPa South 15.4mph /  24.8km/h 21.9mph /  35.2km/h 92% 0.03in /  0.8mm
23:01 39.2 °F /  4.0 °C 37.4 °F /  3.0 °C 29.7in /  1007.0hPa South 19mph /  30.6km/h 21.9mph /  35.2km/h 92% 0.03in /  0.8mm
23:06 39.2 °F /  4.0 °C 37.4 °F /  3.0 °C 29.7in /  1007.0hPa SSE 13.6mph /  21.9km/h 19mph /  30.6km/h 92% 0.03in /  0.8mm
23:11 39.2 °F /  4.0 °C 37.4 °F /  3.0 °C 29.7in /  1007.0hPa SSW 10.7mph /  17.2km/h 19.2mph /  30.9km/h 92% 0.04in /  1.0mm
23:16 39.2 °F /  4.0 °C 37.4 °F /  3.0 °C 29.7in /  1007.0hPa South 10.7mph /  17.2km/h 25.3mph /  40.7km/h 92% 0.02in /  0.5mm
23:21 39.2 °F /  4.0 °C 37.4 °F /  3.0 °C 29.7in /  1007.0hPa SSW 12.5mph /  20.1km/h 25.3mph /  40.7km/h 93% 0.02in /  0.5mm
23:26 39.2 °F /  4.0 °C 37.4 °F /  3.0 °C 29.7in /  1007.0hPa SSE 10.1mph /  16.3km/h 15.2mph /  24.5km/h 93% 0.03in /  0.8mm
23:31 39.2 °F /  4.0 °C 37.4 °F /  3.0 °C 29.7in /  1007.0hPa SSE 14.8mph /  23.8km/h 16.6mph /  26.7km/h 93% 0.03in /  0.8mm
23:36 39.2 °F /  4.0 °C 37.4 °F /  3.0 °C 29.7in /  1007.0hPa SSE 10.3mph /  16.6km/h 17.2mph /  27.7km/h 93% 0.03in /  0.8mm
23:41 39.2 °F /  4.0 °C 37.4 °F /  3.0 °C 29.7in /  1007.0hPa SSW 13.2mph /  21.2km/h 17.2mph /  27.7km/h 94% 0.05in /  1.3mm
23:46 39.2 °F /  4.0 °C 37.4 °F /  3.0 °C 29.7in /  1007.0hPa South 10.7mph /  17.2km/h 14.1mph /  22.7km/h 94% 0.05in /  1.3mm
23:51 39.2 °F /  4.0 °C 37.4 °F /  3.0 °C 29.7in /  1007.0hPa South 13.2mph /  21.2km/h 15.4mph /  24.8km/h 94% 0.03in /  0.8mm
23:56 39 °F /  3.9 °C 37.4 °F /  3.0 °C 29.7in /  1007.0hPa SSE 4.9mph /  7.9km/h 15.4mph /  24.8km/h 95% 0.03in /  0.8mm
Données Historique de Météo Turbie

Mise a jour : 18/06/2018 07:33:12
Généré par Cumulus 1.9.4 (1099)